FBSK

Sir Seretse Khama International Airport

Gaborone, Botswana
TAF FBSK 182200Z 1900/2006 31010KT 8000 -TSRA SCT025 FEW035CB BKN065 TEMPO 1900/1903 TSRA BECMG 1904/1906 NSC BECMG 1912/1914 FEW035CB BECMG 1915/1917 CAVOK
Issued Valid From Valid To
Jan-18 @ 22:00 UTC
(5 hours ago)
Jan-19 @ 00:00 UTC
(3 hours ago)
Jan-20 @ 06:00 UTC
(-1 days ago)
Jan-19 @ 00:00 to Jan-19 @ 04:00
TAF FBSK 182200Z 1900/2006 31010KT 8000 -TSRA SCT025 FEW035CB BKN065
Wind Visibility Clouds Conditions
310° at 10 knots 7,998 meters
  • Scattered at 2,500' AGL
  • Few at 3,500' AGL
  • Broken at 6,500' AGL
  • Light Thunderstorm
  • Light Rain
Temporary Jan-19 @ 00:00 to Jan-19 @ 03:00
TEMPO 1900/1903 TSRA
Conditions
  • Thunderstorm
  • Rain
Becoming Jan-19 @ 04:00 to Jan-19 @ 12:00
BECMG 1904/1906 NSC
Wind Visibility Clouds Conditions
310° at 10 knots 7,998 meters
  • No significant clouds
  • Light Thunderstorm
  • Light Rain
Becoming Jan-19 @ 12:00 to Jan-19 @ 15:00
BECMG 1912/1914 FEW035CB
Wind Visibility Clouds Conditions
310° at 10 knots 7,998 meters
  • Few at 3,500' AGL
  • Light Thunderstorm
  • Light Rain
Becoming Jan-19 @ 15:00 to Jan-20 @ 06:00
BECMG 1915/1917 CAVOK
Wind Visibility Clouds Conditions
310° at 10 knots 10,000+ meters
  • No significant clouds
TAF FBSK 182200Z 1900/2006 31010KT 8000 -TSRA SCT025 FEW035CB BKN065 TEMPO 1900/1903 TSRA BECMG 1904/1906 NSC BECMG 1912/1914 FEW035CB BECMG 1915/1917 CAVOK
Issued Jan-18 @ 22:00 UTC
(5 hours ago)
Valid From Jan-19 @ 00:00 UTC
(3 hours ago)
Valid To Jan-20 @ 06:00 UTC
(-1 days ago)
Jan-19 @ 00:00 - Jan-19 @ 04:00
Wind Visibility
310° at 10 knots 7,998 meters
Clouds
  • Scattered at 2,500' AGL
  • Few at 3,500' AGL
  • Broken at 6,500' AGL
Conditions
  • Light Thunderstorm
  • Light Rain
Temporary Jan-19 @ 00:00 - Jan-19 @ 03:00
Conditions
  • Thunderstorm
  • Rain
Becoming Jan-19 @ 04:00 - Jan-19 @ 12:00
Wind Visibility
310° at 10 knots 7,998 meters
Clouds
  • No significant clouds
Conditions
  • Light Thunderstorm
  • Light Rain
Becoming Jan-19 @ 12:00 - Jan-19 @ 15:00
Wind Visibility
310° at 10 knots 7,998 meters
Clouds
  • Few at 3,500' AGL
Conditions
  • Light Thunderstorm
  • Light Rain
Becoming Jan-19 @ 15:00 - Jan-20 @ 06:00
Wind Visibility
310° at 10 knots 10,000+ meters
Clouds
  • No significant clouds
Conditions